createdAt,value
2022-09-21T00:01:28.130Z,94635.88
2022-09-21T00:03:58.254Z,94635.09
2022-09-21T00:06:27.919Z,94631.81
2022-09-21T00:08:57.723Z,94644.56
2022-09-21T00:11:27.617Z,94627.53
2022-09-21T00:13:57.770Z,94632.47
2022-09-21T00:16:26.021Z,94632.75
2022-09-21T00:18:54.408Z,94637.47
2022-09-21T00:21:22.480Z,94627.81
2022-09-21T00:23:50.508Z,94627.16
2022-09-21T00:26:21.305Z,94627.94
2022-09-21T00:28:54.618Z,94622.91
2022-09-21T00:31:23.336Z,94613.03
2022-09-21T00:33:52.162Z,94611.97
2022-09-21T00:36:22.301Z,94614.13
2022-09-21T00:38:51.932Z,94619.97
2022-09-21T00:41:21.575Z,94613.94
2022-09-21T00:44:10.089Z,94617.28
2022-09-21T00:46:40.236Z,94620.69
2022-09-21T00:49:08.378Z,94616.00
2022-09-21T00:51:37.481Z,94588.25
2022-09-21T00:54:12.310Z,94615.50
2022-09-21T00:56:43.239Z,94612.28
2022-09-21T00:59:13.563Z,94619.53
2022-09-21T01:01:42.808Z,94611.00
2022-09-21T01:04:13.737Z,94612.28
2022-09-21T01:06:42.603Z,94609.69
2022-09-21T01:09:11.249Z,94613.34
2022-09-21T01:11:49.714Z,94607.16
2022-09-21T01:14:41.757Z,94621.44
2022-09-21T01:17:15.960Z,94608.16
2022-09-21T01:20:09.320Z,94602.28
2022-09-21T01:22:53.475Z,94601.31
2022-09-21T01:25:31.796Z,94599.94
2022-09-21T01:28:14.257Z,94604.78
2022-09-21T01:30:48.955Z,94600.75
2022-09-21T01:33:23.318Z,94590.91
2022-09-21T01:35:55.380Z,94591.44
2022-09-21T01:38:27.534Z,94589.88
2022-09-21T01:40:59.287Z,94581.75
2022-09-21T01:43:33.398Z,94592.72
2022-09-21T01:46:05.579Z,94591.69
2022-09-21T01:48:37.645Z,94586.22
2022-09-21T01:51:10.901Z,94589.31
2022-09-21T01:53:42.520Z,94598.25
2022-09-21T01:56:15.488Z,94575.22
2022-09-21T01:58:48.830Z,94596.66
2022-09-21T02:01:22.274Z,94589.38
2022-09-21T02:03:54.155Z,94588.69
2022-09-21T02:06:22.386Z,94582.81
2022-09-21T02:08:50.303Z,94590.72
2022-09-21T02:11:18.191Z,94598.03
2022-09-21T02:13:48.136Z,94593.94
2022-09-21T02:16:35.615Z,94601.06
2022-09-21T02:19:15.700Z,94595.09
2022-09-21T02:21:58.440Z,94596.47
2022-09-21T02:24:36.668Z,94595.91
2022-09-21T02:27:07.366Z,94587.13
2022-09-21T02:29:45.158Z,94589.72
2022-09-21T02:32:21.585Z,94589.34
2022-09-21T02:34:58.392Z,94592.91
2022-09-21T02:37:33.797Z,94597.41
2022-09-21T02:40:09.762Z,94591.34
2022-09-21T02:42:42.904Z,94585.31
2022-09-21T02:45:15.455Z,94593.78
2022-09-21T02:47:49.720Z,94595.41
2022-09-21T02:50:23.233Z,94591.88
2022-09-21T02:52:53.735Z,94583.97
2022-09-21T02:55:22.109Z,94586.72
2022-09-21T02:57:51.442Z,94598.16
2022-09-21T03:00:19.549Z,94599.91
2022-09-21T03:02:48.803Z,94592.03
2022-09-21T03:05:16.908Z,94597.09
2022-09-21T03:07:44.780Z,94595.06
2022-09-21T03:10:12.636Z,94597.47
2022-09-21T03:12:40.533Z,94597.84
2022-09-21T03:15:08.787Z,94595.56
2022-09-21T03:17:36.715Z,94598.00
2022-09-21T03:20:06.695Z,94595.47
2022-09-21T03:22:34.613Z,94596.91
2022-09-21T03:25:02.608Z,94572.34
2022-09-21T03:27:30.490Z,94603.75
2022-09-21T03:30:02.473Z,94603.09
2022-09-21T03:32:30.645Z,94581.47
2022-09-21T03:34:58.633Z,94590.47
2022-09-21T03:37:27.866Z,94578.09
2022-09-21T03:39:55.835Z,94604.50
2022-09-21T03:42:23.716Z,94598.59
2022-09-21T03:44:51.625Z,94598.06
2022-09-21T03:47:20.729Z,94581.63
2022-09-21T03:49:48.677Z,94591.50
2022-09-21T03:52:16.583Z,94605.22
2022-09-21T03:54:46.053Z,94609.44
2022-09-21T03:57:13.979Z,94605.97
2022-09-21T03:59:42.147Z,94619.56
2022-09-21T04:02:10.123Z,94609.81
2022-09-21T04:04:37.983Z,94614.16
2022-09-21T04:07:06.109Z,94604.34
2022-09-21T04:09:34.006Z,94601.91
2022-09-21T04:12:03.676Z,94604.09
2022-09-21T04:14:31.538Z,94611.28
2022-09-21T04:16:59.513Z,94602.69
2022-09-21T04:19:27.487Z,94612.16
2022-09-21T04:21:56.242Z,94610.38
2022-09-21T04:24:24.761Z,94605.97
2022-09-21T04:26:52.682Z,94611.34
2022-09-21T04:29:22.029Z,94593.63
2022-09-21T04:31:49.921Z,94607.00
2022-09-21T04:34:17.794Z,94599.44
2022-09-21T04:36:46.024Z,94601.09
2022-09-21T04:39:13.888Z,94610.16
2022-09-21T04:41:42.265Z,94601.13
2022-09-21T04:44:10.243Z,94608.38
2022-09-21T04:46:39.560Z,94599.81
2022-09-21T04:49:08.807Z,94610.19
2022-09-21T04:51:36.883Z,94607.28
2022-09-21T04:54:05.120Z,94615.75
2022-09-21T04:56:33.079Z,94602.81
2022-09-21T04:59:01.091Z,94621.59
2022-09-21T05:01:29.132Z,94627.31
2022-09-21T05:04:02.588Z,94630.19
2022-09-21T05:06:30.500Z,94634.00
2022-09-21T05:09:16.017Z,94630.13
2022-09-21T05:11:44.143Z,94628.13
2022-09-21T05:14:12.152Z,94629.91
2022-09-21T05:16:40.193Z,94619.88
2022-09-21T05:19:09.500Z,94617.19
2022-09-21T05:21:37.524Z,94623.53
2022-09-21T05:24:05.861Z,94629.06
2022-09-21T05:26:33.757Z,94606.69
2022-09-21T05:29:02.366Z,94623.34
2022-09-21T05:31:40.076Z,94614.78
2022-09-21T05:34:26.735Z,94626.63
2022-09-21T05:37:01.642Z,94631.19
2022-09-21T05:39:30.248Z,94621.03
2022-09-21T05:41:59.056Z,94631.09
2022-09-21T05:44:27.473Z,94638.44
2022-09-21T05:47:02.749Z,94623.75
2022-09-21T05:49:45.831Z,94632.53
2022-09-21T05:52:22.000Z,94633.56
2022-09-21T05:55:03.560Z,94624.41
2022-09-21T05:57:45.754Z,94618.09
2022-09-21T06:00:19.088Z,94644.34
2022-09-21T06:03:09.363Z,94643.75
2022-09-21T06:05:38.781Z,94631.28
2022-09-21T06:08:06.755Z,94649.25
2022-09-21T06:10:36.731Z,94638.88
2022-09-21T06:13:04.880Z,94652.50
2022-09-21T06:15:32.827Z,94646.66
2022-09-21T06:18:00.731Z,94657.97
2022-09-21T06:20:28.717Z,94659.78
2022-09-21T06:23:02.847Z,94660.75
2022-09-21T06:25:30.964Z,94658.78
2022-09-21T06:28:04.520Z,94662.47
2022-09-21T06:30:35.734Z,94675.78
2022-09-21T06:33:05.623Z,94670.09
2022-09-21T06:35:35.772Z,94656.47
2022-09-21T06:38:07.528Z,94677.06
2022-09-21T06:40:37.474Z,94671.03
2022-09-21T06:43:06.502Z,94676.78
2022-09-21T06:45:34.686Z,94683.59
2022-09-21T06:48:03.096Z,94685.09
2022-09-21T06:50:31.196Z,94693.31
2022-09-21T06:53:00.961Z,94696.09
2022-09-21T06:55:30.605Z,94694.13
2022-09-21T06:58:02.368Z,94703.53
2022-09-21T07:00:30.930Z,94698.03
2022-09-21T07:02:59.460Z,94702.81
2022-09-21T07:05:28.057Z,94696.28
2022-09-21T07:07:58.829Z,94691.03
2022-09-21T07:10:27.562Z,94699.97
2022-09-21T07:12:57.023Z,94694.38
2022-09-21T07:15:25.317Z,94701.81
2022-09-21T07:18:05.059Z,94677.63
2022-09-21T07:20:33.881Z,94714.31
2022-09-21T07:23:01.831Z,94700.31
2022-09-21T07:25:29.739Z,94695.47
2022-09-21T07:28:01.725Z,94692.84
2022-09-21T07:30:29.677Z,94694.56
2022-09-21T07:32:58.761Z,94701.19
2022-09-21T07:35:26.729Z,94698.06
2022-09-21T07:37:56.491Z,94705.84
2022-09-21T07:40:25.309Z,94713.06
2022-09-21T07:42:53.642Z,94703.09
2022-09-21T07:45:23.195Z,94696.56
2022-09-21T07:47:54.217Z,94699.75
2022-09-21T07:50:22.284Z,94684.28
2022-09-21T07:52:50.794Z,94693.22
2022-09-21T07:55:18.861Z,94703.94
2022-09-21T07:58:03.153Z,94709.88
2022-09-21T08:00:35.042Z,94700.06
2022-09-21T08:03:03.186Z,94686.78
2022-09-21T08:05:31.149Z,94700.63
2022-09-21T08:07:59.571Z,94701.69
2022-09-21T08:10:29.494Z,94716.56
2022-09-21T08:12:58.307Z,94707.03
2022-09-21T08:15:47.712Z,94704.84
2022-09-21T08:18:16.886Z,94712.78
2022-09-21T08:20:44.805Z,94699.72
2022-09-21T08:23:13.082Z,94703.28
2022-09-21T08:25:41.185Z,94707.09
2022-09-21T08:28:10.125Z,94703.91
2022-09-21T08:30:38.227Z,94705.16
2022-09-21T08:33:07.021Z,94705.09
2022-09-21T08:35:37.066Z,94696.28
2022-09-21T08:38:05.070Z,94708.31
2022-09-21T08:40:34.388Z,94704.34
2022-09-21T08:43:06.684Z,94707.94
2022-09-21T08:45:39.184Z,94701.03
2022-09-21T08:48:16.388Z,94691.03
2022-09-21T08:50:50.772Z,94689.72
2022-09-21T08:53:22.023Z,94705.25
2022-09-21T08:55:50.103Z,94697.75
2022-09-21T08:58:24.561Z,94717.31
2022-09-21T09:01:08.014Z,94685.69
2022-09-21T09:03:49.576Z,94695.16
2022-09-21T09:06:29.877Z,94696.69
2022-09-21T09:09:33.481Z,94683.81
2022-09-21T09:12:18.629Z,94690.91
2022-09-21T09:15:05.668Z,94687.63
2022-09-21T09:17:45.744Z,94681.75
2022-09-21T09:20:18.581Z,94686.38
2022-09-21T09:22:52.289Z,94671.66
2022-09-21T09:25:22.929Z,94677.72
2022-09-21T09:27:55.565Z,94684.28
2022-09-21T09:30:25.846Z,94678.56
2022-09-21T09:33:00.834Z,94677.63
2022-09-21T09:35:33.203Z,94692.16
2022-09-21T09:38:13.129Z,94682.50
2022-09-21T09:40:59.248Z,94675.47
2022-09-21T09:43:42.346Z,94669.19
2022-09-21T09:46:20.001Z,94670.28
2022-09-21T09:49:05.473Z,94665.25
2022-09-21T09:51:40.683Z,94647.50
2022-09-21T09:54:16.187Z,94657.69
2022-09-21T09:56:44.502Z,94661.31
2022-09-21T09:59:20.969Z,94653.66
2022-09-21T10:02:00.981Z,94657.63
2022-09-21T10:04:29.256Z,94646.50
2022-09-21T10:06:57.418Z,94650.03
2022-09-21T10:09:29.156Z,94624.78
2022-09-21T10:12:01.436Z,94666.31
2022-09-21T10:14:34.165Z,94651.34
2022-09-21T10:17:07.370Z,94639.06
2022-09-21T10:19:35.457Z,94651.47
2022-09-21T10:22:06.405Z,94649.66
2022-09-21T10:24:40.746Z,94627.75
2022-09-21T10:27:14.336Z,94637.75
2022-09-21T10:29:44.768Z,94634.94
2022-09-21T10:32:24.890Z,94633.03
2022-09-21T10:35:15.206Z,94624.56
2022-09-21T10:37:44.991Z,94621.94
2022-09-21T10:40:30.793Z,94610.41
2022-09-21T10:43:02.669Z,94616.00
2022-09-21T10:45:32.659Z,94622.59
2022-09-21T10:48:09.847Z,94601.59
2022-09-21T10:50:40.047Z,94611.63
2022-09-21T10:53:25.543Z,94616.13
2022-09-21T10:56:14.890Z,94626.09
2022-09-21T10:59:20.570Z,94616.19
2022-09-21T11:01:50.870Z,94599.34
2022-09-21T11:04:27.368Z,94589.63
2022-09-21T11:07:02.054Z,94604.06
2022-09-21T11:09:37.515Z,94605.63
2022-09-21T11:12:17.097Z,94604.94
2022-09-21T11:14:52.706Z,94591.31
2022-09-21T11:17:28.133Z,94594.34
2022-09-21T11:20:06.239Z,94577.69
2022-09-21T11:22:39.445Z,94580.66
2022-09-21T11:25:25.195Z,94582.38
2022-09-21T11:28:01.580Z,94587.75
2022-09-21T11:30:41.145Z,94583.06
2022-09-21T11:33:24.985Z,94583.88
2022-09-21T11:36:04.761Z,94592.72
2022-09-21T11:38:45.471Z,94589.41
2022-09-21T11:41:35.803Z,94602.47
2022-09-21T11:44:30.121Z,94598.75
2022-09-21T11:47:08.167Z,94581.03
2022-09-21T11:49:49.507Z,94565.94
2022-09-21T11:52:33.225Z,94594.13
2022-09-21T11:55:18.146Z,94600.88
2022-09-21T11:57:56.152Z,94602.81
2022-09-21T12:00:27.977Z,94606.69
2022-09-21T12:03:23.297Z,94615.75
2022-09-21T12:06:04.352Z,94610.94
2022-09-21T12:08:51.517Z,94614.81
2022-09-21T12:11:30.948Z,94617.22
2022-09-21T12:14:07.850Z,94601.94
2022-09-21T12:16:47.301Z,94615.06
2022-09-21T12:19:25.168Z,94609.00
2022-09-21T12:21:58.039Z,94619.78
2022-09-21T12:24:33.000Z,94617.25
2022-09-21T12:27:06.389Z,94622.50
2022-09-21T12:29:47.275Z,94615.09
2022-09-21T12:32:22.719Z,94619.91
2022-09-21T12:34:56.031Z,94620.44
2022-09-21T12:37:31.840Z,94601.81
2022-09-21T12:40:07.073Z,94599.88
2022-09-21T12:42:42.120Z,94613.63
2022-09-21T12:45:19.160Z,94610.84
2022-09-21T12:47:56.851Z,94600.72
2022-09-21T12:50:30.488Z,94602.16
2022-09-21T12:52:59.473Z,94586.47
2022-09-21T12:55:45.513Z,94609.66
2022-09-21T12:58:35.279Z,94602.47
2022-09-21T13:01:14.723Z,94600.34
2022-09-21T13:04:02.877Z,94600.22
2022-09-21T13:06:50.600Z,94594.47
2022-09-21T13:09:21.914Z,94589.38
2022-09-21T13:11:54.564Z,94591.28
2022-09-21T13:14:24.322Z,94594.47
2022-09-21T13:16:57.690Z,94590.88
2022-09-21T13:19:31.148Z,94594.91
2022-09-21T13:22:13.845Z,94598.00
2022-09-21T13:24:44.245Z,94591.53
2022-09-21T13:27:13.874Z,94586.69
2022-09-21T13:29:43.129Z,94575.75
2022-09-21T13:32:25.657Z,94577.09
2022-09-21T13:35:33.374Z,94591.13
2022-09-21T13:38:26.950Z,94583.88
2022-09-21T13:41:07.193Z,94583.97
2022-09-21T13:43:49.334Z,94579.66
2022-09-21T13:46:55.561Z,94575.81
2022-09-21T13:49:42.447Z,94577.00
2022-09-21T13:52:37.378Z,94582.59
2022-09-21T13:55:07.876Z,94569.44
2022-09-21T13:57:41.075Z,94582.19
2022-09-21T14:00:44.610Z,94582.22
2022-09-21T14:03:25.884Z,94561.31
2022-09-21T14:05:56.924Z,94576.28
2022-09-21T14:08:43.209Z,94559.81
2022-09-21T14:11:18.912Z,94559.06
2022-09-21T14:13:49.717Z,94560.75
2022-09-21T14:16:47.315Z,94556.78
2022-09-21T14:20:03.769Z,94568.75
2022-09-21T14:22:38.215Z,94561.91
2022-09-21T14:25:49.033Z,94570.38
2022-09-21T14:28:19.778Z,94561.03
2022-09-21T14:30:56.397Z,94563.13
2022-09-21T14:33:30.378Z,94553.47
2022-09-21T14:36:02.194Z,94553.47
2022-09-21T14:38:33.035Z,94556.66
2022-09-21T14:41:07.456Z,94562.41
2022-09-21T14:43:39.825Z,94558.13
2022-09-21T14:46:36.149Z,94565.53
2022-09-21T14:49:20.563Z,94566.69
2022-09-21T14:52:04.288Z,94559.88
2022-09-21T14:54:49.802Z,94572.44
2022-09-21T14:57:37.343Z,94565.50
2022-09-21T15:00:21.110Z,94574.88
2022-09-21T15:02:57.456Z,94576.78
2022-09-21T15:05:34.622Z,94564.28
2022-09-21T15:08:38.719Z,94560.25
2022-09-21T15:11:12.023Z,94570.72
2022-09-21T15:14:00.026Z,94574.09
2022-09-21T15:16:37.717Z,94572.66
2022-09-21T15:19:24.761Z,94568.31
2022-09-21T15:21:53.981Z,94576.38
2022-09-21T15:24:26.772Z,94569.94
2022-09-21T15:27:03.424Z,94585.47
2022-09-21T15:29:33.987Z,94580.25
2022-09-21T15:32:04.018Z,94594.59
2022-09-21T15:34:32.276Z,94595.53
2022-09-21T15:37:17.040Z,94596.41
2022-09-21T15:39:44.985Z,94590.81
2022-09-21T15:42:24.198Z,94593.81
2022-09-21T15:45:07.171Z,94609.25
2022-09-21T15:47:36.469Z,94603.00
2022-09-21T15:50:05.103Z,94603.81
2022-09-21T15:52:38.944Z,94608.25
2022-09-21T15:55:15.024Z,94602.00
2022-09-21T15:57:44.358Z,94619.72
2022-09-21T16:00:24.855Z,94620.25
2022-09-21T16:03:05.417Z,94613.47
2022-09-21T16:05:43.187Z,94612.38
2022-09-21T16:08:27.732Z,94615.44
2022-09-21T16:11:13.434Z,94625.31
2022-09-21T16:13:59.758Z,94625.69
2022-09-21T16:16:27.996Z,94616.38
2022-09-21T16:19:00.097Z,94627.66
2022-09-21T16:21:32.601Z,94626.84
2022-09-21T16:24:16.884Z,94624.97
2022-09-21T16:26:57.621Z,94625.38
2022-09-21T16:29:27.348Z,94632.28
2022-09-21T16:32:23.384Z,94628.22
2022-09-21T16:34:54.378Z,94629.31
2022-09-21T16:37:30.480Z,94629.47
2022-09-21T16:39:59.947Z,94633.97
2022-09-21T16:42:33.000Z,94631.38
2022-09-21T16:45:01.464Z,94637.56
2022-09-21T16:47:34.795Z,94639.66
2022-09-21T16:50:04.685Z,94640.28
2022-09-21T16:52:32.616Z,94643.69
2022-09-21T16:55:02.071Z,94648.19
2022-09-21T16:57:30.012Z,94646.75
2022-09-21T16:59:58.117Z,94656.19
2022-09-21T17:02:26.033Z,94661.75
2022-09-21T17:04:53.955Z,94659.44
2022-09-21T17:07:23.473Z,94654.56
2022-09-21T17:09:51.650Z,94668.94
2022-09-21T17:12:20.410Z,94667.69
2022-09-21T17:14:50.158Z,94679.56
2022-09-21T17:17:20.789Z,94686.28
2022-09-21T17:19:51.394Z,94696.72
2022-09-21T17:22:20.203Z,94710.25
2022-09-21T17:24:52.262Z,94700.94
2022-09-21T17:27:22.707Z,94707.97
2022-09-21T17:29:51.275Z,94703.53
2022-09-21T17:32:21.470Z,94686.88
2022-09-21T17:34:53.337Z,94694.78
2022-09-21T17:37:21.961Z,94703.50
2022-09-21T17:39:51.397Z,94710.94
2022-09-21T17:42:21.787Z,94714.56
2022-09-21T17:45:13.557Z,94703.41
2022-09-21T17:47:42.780Z,94710.03
2022-09-21T17:50:22.973Z,94717.16
2022-09-21T17:53:09.433Z,94712.66
2022-09-21T17:55:39.488Z,94716.38
2022-09-21T17:58:20.007Z,94706.50
2022-09-21T18:00:54.453Z,94710.56
2022-09-21T18:03:24.549Z,94717.53
2022-09-21T18:05:57.230Z,94724.69
2022-09-21T18:08:27.013Z,94731.84
2022-09-21T18:11:07.073Z,94722.31
2022-09-21T18:13:45.852Z,94723.63
2022-09-21T18:16:27.193Z,94706.44
2022-09-21T18:19:05.537Z,94723.97
2022-09-21T18:21:40.784Z,94737.94
2022-09-21T18:24:20.294Z,94740.69
2022-09-21T18:26:52.574Z,94743.94
2022-09-21T18:29:40.838Z,94732.75
2022-09-21T18:32:42.151Z,94752.06
2022-09-21T18:35:19.319Z,94729.34
2022-09-21T18:37:59.539Z,94728.34
2022-09-21T18:40:37.455Z,94743.28
2022-09-21T18:43:22.631Z,94737.44
2022-09-21T18:45:56.431Z,94750.75
2022-09-21T18:48:38.555Z,94756.13
2022-09-21T18:51:15.923Z,94758.22
2022-09-21T18:53:48.841Z,94745.56
2022-09-21T18:56:17.663Z,94751.38
2022-09-21T18:58:49.639Z,94751.25
2022-09-21T19:01:19.150Z,94750.59
2022-09-21T19:03:49.144Z,94755.47
2022-09-21T19:06:30.678Z,94738.41
2022-09-21T19:09:08.930Z,94752.84
2022-09-21T19:11:43.835Z,94750.25
2022-09-21T19:14:21.752Z,94736.13
2022-09-21T19:17:07.616Z,94735.97
2022-09-21T19:19:43.790Z,94731.13
2022-09-21T19:22:15.756Z,94713.75
2022-09-21T19:25:04.605Z,94728.22
2022-09-21T19:27:39.856Z,94730.31
2022-09-21T19:30:13.359Z,94724.97
2022-09-21T19:32:45.732Z,94721.69
2022-09-21T19:35:23.197Z,94714.88
2022-09-21T19:37:53.716Z,94709.88
2022-09-21T19:40:24.106Z,94697.69
2022-09-21T19:43:04.027Z,94688.13
2022-09-21T19:45:45.480Z,94697.50
2022-09-21T19:48:17.044Z,94693.28
2022-09-21T19:50:54.790Z,94695.56
2022-09-21T19:53:41.559Z,94690.69
2022-09-21T19:56:30.327Z,94688.91
2022-09-21T19:59:15.960Z,94692.34
2022-09-21T20:02:04.735Z,94690.88
2022-09-21T20:04:39.260Z,94687.13
2022-09-21T20:07:18.989Z,94676.25
2022-09-21T20:09:58.960Z,94688.56
2022-09-21T20:12:34.128Z,94698.78
2022-09-21T20:15:08.922Z,94694.72
2022-09-21T20:17:46.467Z,94691.66
2022-09-21T20:20:21.583Z,94683.56
2022-09-21T20:22:49.859Z,94701.41
2022-09-21T20:25:22.411Z,94695.22
2022-09-21T20:27:52.154Z,94701.03
2022-09-21T20:30:24.448Z,94692.34
2022-09-21T20:32:57.336Z,94693.63
2022-09-21T20:35:28.437Z,94706.59
2022-09-21T20:38:01.305Z,94703.00
2022-09-21T20:40:32.723Z,94693.44
2022-09-21T20:43:01.957Z,94699.59
2022-09-21T20:45:30.810Z,94697.19
2022-09-21T20:48:13.133Z,94702.19
2022-09-21T20:50:42.338Z,94698.94
2022-09-21T20:53:10.575Z,94695.69
2022-09-21T20:55:38.583Z,94715.44
2022-09-21T20:58:06.932Z,94704.75
2022-09-21T21:00:34.940Z,94700.84
2022-09-21T21:03:05.685Z,94691.91
2022-09-21T21:05:36.429Z,94688.19
2022-09-21T21:08:08.147Z,94708.63
2022-09-21T21:10:37.175Z,94703.09
2022-09-21T21:13:10.524Z,94700.28
2022-09-21T21:15:38.490Z,94703.91
2022-09-21T21:18:12.494Z,94707.25
2022-09-21T21:20:41.117Z,94696.09
2022-09-21T21:23:09.055Z,94698.19
2022-09-21T21:25:39.831Z,94687.81
2022-09-21T21:28:07.729Z,94692.50
2022-09-21T21:30:35.616Z,94704.97
2022-09-21T21:33:04.323Z,94697.50
2022-09-21T21:35:33.555Z,94694.22
2022-09-21T21:38:01.469Z,94697.28
2022-09-21T21:40:29.403Z,94690.97
2022-09-21T21:42:57.715Z,94685.13
2022-09-21T21:45:25.816Z,94687.25
2022-09-21T21:47:55.721Z,94681.38
2022-09-21T21:50:23.842Z,94693.38
2022-09-21T21:52:55.916Z,94684.13
2022-09-21T21:55:23.791Z,94681.16
2022-09-21T21:57:52.026Z,94671.94
2022-09-21T22:00:20.186Z,94684.25
2022-09-21T22:02:48.107Z,94686.66
2022-09-21T22:05:16.021Z,94689.41
2022-09-21T22:07:43.943Z,94686.34
2022-09-21T22:10:13.247Z,94682.28
2022-09-21T22:12:41.927Z,94676.50
2022-09-21T22:15:10.973Z,94675.69
2022-09-21T22:17:39.057Z,94664.53
2022-09-21T22:20:08.260Z,94667.75
2022-09-21T22:22:36.100Z,94662.09
2022-09-21T22:25:04.338Z,94665.19
2022-09-21T22:27:33.545Z,94671.31
2022-09-21T22:30:01.457Z,94666.47
2022-09-21T22:32:29.944Z,94668.09
2022-09-21T22:34:57.822Z,94671.31
2022-09-21T22:37:25.671Z,94662.25
2022-09-21T22:39:53.856Z,94670.00
2022-09-21T22:42:21.772Z,94677.09
2022-09-21T22:44:50.988Z,94676.13
2022-09-21T22:47:18.826Z,94676.13
2022-09-21T22:49:46.686Z,94677.53
2022-09-21T22:52:14.508Z,94681.75
2022-09-21T22:54:42.368Z,94676.03
2022-09-21T22:57:10.249Z,94682.50
2022-09-21T22:59:38.120Z,94687.38
2022-09-21T23:02:09.448Z,94687.88
2022-09-21T23:04:37.313Z,94688.44
2022-09-21T23:07:05.332Z,94696.56
2022-09-21T23:09:33.236Z,94698.66
2022-09-21T23:12:01.353Z,94701.41
2022-09-21T23:14:29.341Z,94693.91
2022-09-21T23:16:57.255Z,94700.38
2022-09-21T23:19:26.551Z,94687.44
2022-09-21T23:21:54.416Z,94698.09
2022-09-21T23:24:22.651Z,94696.94
2022-09-21T23:26:51.841Z,94688.81
2022-09-21T23:29:19.918Z,94682.00
2022-09-21T23:31:47.895Z,94683.72
2022-09-21T23:34:16.719Z,94690.88
2022-09-21T23:36:46.674Z,94688.63
2022-09-21T23:39:16.671Z,94687.44
2022-09-21T23:41:44.993Z,94682.72
2022-09-21T23:44:13.355Z,94676.88
2022-09-21T23:46:42.099Z,94683.72
2022-09-21T23:49:10.181Z,94695.66
2022-09-21T23:51:38.394Z,94690.78
2022-09-21T23:54:07.971Z,94681.38
2022-09-21T23:56:35.924Z,94677.22
2022-09-21T23:59:04.134Z,94667.47
